Station Historical Data
Daily Summary for May 29, 2017 Units:  English    Metric   Both
« Previous Day
Next Day »
Daily Weekly Monthly Yearly Custom
  High: Low: Average:
Temperature: 81.3 °F 66.3 °F 71.5 °F
Dew Point: 69.3 °F 63.0 °F 66 °F
Humidity: 93% 63% 84%
Wind Speed: 2.0mph 0.0mph 0mph
Wind Gust: 5.0mph - -
Wind- - WSW
Pressure: 30.09 in 29.93 in -
Precipitation: 0.81 in    
Historical Graphs
 
 
Tabular Data for May 29, 2017
Time Temperature Dew Point Pressure Wind Wind Speed Wind Gust Humidity Rainfall Rate (Hourly) solar Conditions
00:00 67.8 °F 64.1 °F 29.93 in Calm     88% 0.00 in WeatherDisplay:10.37 W/m2 RA
00:10 67.9 °F 63.8 °F 29.93 in Calm     87% 0.00 in WeatherDisplay:10.37 W/m2 SCT
00:20 67.9 °F 63.9 °F 29.93 in Calm     87% 0.00 in WeatherDisplay:10.37 W/m2 SCT
00:30 68.0 °F 63.9 °F 29.93 in Calm     87% 0.00 in WeatherDisplay:10.37 W/m2 SCT
00:40 68.0 °F 63.7 °F 29.93 in Calm     86% 0.00 in WeatherDisplay:10.37 W/m2 SCT
00:50 67.9 °F 63.6 °F 29.93 in Calm     86% 0.00 in WeatherDisplay:10.37 W/m2 SCT
01:00 67.9 °F 63.6 °F 29.93 in Calm     86% 0.00 in WeatherDisplay:10.37 W/m2 SCT
01:10 67.8 °F 63.4 °F 29.93 in Calm     86% 0.00 in WeatherDisplay:10.37 W/m2 SCT
01:20 67.5 °F 63.5 °F 29.93 in Calm     87% 0.00 in WeatherDisplay:10.37 W/m2 SCT
01:30 67.2 °F 63.2 °F 29.93 in Calm     87% 0.00 in WeatherDisplay:10.37 W/m2 SCT
01:40 67.0 °F 63.0 °F 29.94 in Calm     87% 0.00 in WeatherDisplay:10.37 W/m2 SCT
01:50 66.9 °F 63.2 °F 29.94 in Calm     88% 0.00 in WeatherDisplay:10.37 W/m2 SCT
02:00 66.8 °F 63.1 °F 29.95 in Calm     88% 0.00 in WeatherDisplay:10.37 W/m2 SCT
02:10 66.7 °F 63.0 °F 29.95 in Calm     88% 0.00 in WeatherDisplay:10.37 W/m2 SCT
02:20 66.7 °F 63.3 °F 29.95 in Calm     89% 0.00 in WeatherDisplay:10.37 W/m2 SCT
02:30 66.7 °F 63.4 °F 29.96 in Calm     89% 0.00 in WeatherDisplay:10.37 W/m2 SCT
02:40 66.7 °F 63.4 °F 29.96 in Calm     89% 0.00 in WeatherDisplay:10.37 W/m2 SCT
02:50 66.9 °F 63.6 °F 29.96 in Calm     89% 0.00 in WeatherDisplay:10.37 W/m2 SCT
03:00 67.2 °F 63.5 °F 29.96 in Calm     88% 0.00 in WeatherDisplay:10.37 W/m2 SCT
03:10 67.5 °F 63.8 °F 29.97 in Calm     88% 0.00 in WeatherDisplay:10.37 W/m2 SCT
03:20 67.7 °F 64.0 °F 29.97 in Calm     88% 0.00 in WeatherDisplay:10.37 W/m2 SCT
03:30 68.0 °F 64.3 °F 29.97 in Calm     88% 0.00 in WeatherDisplay:10.37 W/m2 SCT
03:40 68.3 °F 64.3 °F 29.97 in Calm     87% 0.00 in WeatherDisplay:10.37 W/m2 SCT
03:50 67.9 °F 63.9 °F 29.97 in Calm     87% 0.00 in WeatherDisplay:10.37 W/m2 SCT
04:00 67.9 °F 63.9 °F 29.97 in Calm     87% 0.00 in WeatherDisplay:10.37 W/m2 SCT
04:10 67.9 °F 63.9 °F 29.98 in Calm     87% 0.00 in WeatherDisplay:10.37 W/m2 SCT
04:20 67.9 °F 63.9 °F 29.98 in Calm     87% 0.00 in WeatherDisplay:10.37 W/m2 SCT
04:30 67.9 °F 63.9 °F 29.98 in Calm     87% 0.00 in WeatherDisplay:10.37 W/m2 SCT
04:40 67.9 °F 63.9 °F 29.98 in Calm     87% 0.00 in WeatherDisplay:10.37 W/m2 SCT
04:50 67.9 °F 63.9 °F 29.98 in Calm     87% 0.00 in WeatherDisplay:10.37 W/m2 SCT
05:00 67.9 °F 63.9 °F 29.98 in Calm     87% 0.00 in WeatherDisplay:10.37 W/m2 SCT
05:10 67.9 °F 63.9 °F 29.98 in Calm     87% 0.00 in WeatherDisplay:10.37 W/m2 SCT
05:20 67.9 °F 63.9 °F 29.98 in Calm     87% 0.00 in WeatherDisplay:10.37 W/m2 SCT
05:30 67.9 °F 63.9 °F 29.98 in Calm     87% 0.00 in WeatherDisplay:10.37 W/m2 SCT
05:40 67.9 °F 63.9 °F 29.99 in Calm     87% 0.00 in WeatherDisplay:10.37 W/m2 SCT
05:50 67.9 °F 63.9 °F 29.98 in Calm     87% 0.00 in WeatherDisplay:10.37 W/m2 SCT
06:00 67.9 °F 63.9 °F 29.97 in Calm     87% 0.00 in WeatherDisplay:10.37 W/m2 SCT
06:10 67.9 °F 63.9 °F 29.97 in Calm     87% 0.00 in WeatherDisplay:10.37 W/m2 SCT
06:20 67.9 °F 63.9 °F 29.97 in Calm     87% 0.00 in WeatherDisplay:10.37 W/m2 SCT
06:30 67.9 °F 63.9 °F 29.98 in Calm     87% 0.00 in WeatherDisplay:10.37 W/m2 SCT
06:40 67.9 °F 63.9 °F 29.98 in Calm     87% 0.00 in WeatherDisplay:10.37 W/m2 SCT
06:50 67.9 °F 63.9 °F 29.97 in Calm     87% 0.00 in WeatherDisplay:10.37 W/m2 SCT
07:00 67.9 °F 63.9 °F 29.98 in Calm     87% 0.00 in WeatherDisplay:10.37 W/m2 SCT
07:10 67.9 °F 63.9 °F 29.97 in Calm     87% 0.00 in WeatherDisplay:10.37 W/m2 SCT
07:20 67.9 °F 63.9 °F 29.98 in Calm     87% 0.00 in WeatherDisplay:10.37 W/m2 SCT
07:30 67.0 °F 64.0 °F 29.98 in Calm     90% 0.00 in WeatherDisplay:10.37 W/m2 SCT
07:40 67.5 °F 64.8 °F 29.99 in Calm     91% 0.00 in WeatherDisplay:10.37 W/m2 SCT
07:50 68.0 °F 64.9 °F 29.99 in Calm     90% 0.00 in WeatherDisplay:10.37 W/m2 SCT
08:00 68.2 °F 65.2 °F 29.99 in Calm     90% 0.00 in WeatherDisplay:10.37 W/m2 SCT
08:10 68.5 °F 65.1 °F 30.00 in Calm     89% 0.00 in WeatherDisplay:10.37 W/m2 SCT
08:20 68.8 °F 65.4 °F 30.00 in Calm     89% 0.00 in WeatherDisplay:10.37 W/m2 SCT
08:30 69.2 °F 65.5 °F 30.00 in Calm     88% 0.00 in WeatherDisplay:10.37 W/m2 SCT
08:40 69.8 °F 66.1 °F 29.99 in Calm     88% 0.00 in WeatherDisplay:10.37 W/m2 SCT
08:50 70.5 °F 66.1 °F 30.00 in Calm   2.0 mph 86% 0.00 in WeatherDisplay:10.37 W/m2 SCT
09:00 71.2 °F 65.4 °F 29.99 in Calm   2.0 mph 82% 0.00 in WeatherDisplay:10.37 W/m2 SCT
09:10 71.5 °F 65.7 °F 30.00 in Calm   1.0 mph 82% 0.00 in WeatherDisplay:10.37 W/m2 SCT
09:20 72.0 °F 65.9 °F 30.00 in Calm   1.0 mph 81% 0.00 in WeatherDisplay:10.37 W/m2 SCT
09:30 72.7 °F 66.1 °F 29.99 in Calm   1.0 mph 80% 0.00 in WeatherDisplay:10.37 W/m2 SCT
09:40 73.5 °F 66.2 °F 30.00 in Calm   2.0 mph 78% 0.00 in WeatherDisplay:10.37 W/m2 SCT
09:50 74.0 °F 66.7 °F 30.01 in Calm   1.0 mph 78% 0.00 in WeatherDisplay:10.37 W/m2 SCT
10:00 74.7 °F 66.6 °F 30.01 in Calm   2.0 mph 76% 0.00 in WeatherDisplay:10.37 W/m2 SCT
10:10 76.0 °F 67.5 °F 30.01 in Calm   2.0 mph 75% 0.00 in WeatherDisplay:10.37 W/m2 SCT
10:20 77.3 °F 66.7 °F 30.01 in Calm   1.0 mph 70% 0.00 in WeatherDisplay:10.37 W/m2 SCT
10:30 76.8 °F 66.3 °F 30.01 in Calm   2.0 mph 70% 0.00 in WeatherDisplay:10.37 W/m2 SCT
10:40 77.7 °F 67.1 °F 30.02 in Calm   3.0 mph 70% 0.00 in WeatherDisplay:10.37 W/m2 SCT
10:50 78.2 °F 66.7 °F 30.03 in SSW 1.0 mph 5.0 mph 68% 0.00 in WeatherDisplay:10.37 W/m2 SCT
11:00 78.4 °F 67.4 °F 30.03 in Calm   5.0 mph 69% 0.00 in WeatherDisplay:10.37 W/m2 SCT
11:10 78.3 °F 66.4 °F 30.03 in South 2.0 mph 5.0 mph 67% 0.00 in WeatherDisplay:10.37 W/m2 SCT
11:20 78.0 °F 66.6 °F 30.03 in Calm   5.0 mph 68% 0.00 in WeatherDisplay:10.37 W/m2 SCT
11:30 78.4 °F 67.0 °F 30.03 in Calm   1.0 mph 68% 0.00 in WeatherDisplay:10.37 W/m2 SCT
11:40 78.5 °F 66.6 °F 30.04 in Calm   3.0 mph 67% 0.00 in WeatherDisplay:10.37 W/m2 SCT
11:50 78.9 °F 67.0 °F 30.03 in Calm   2.0 mph 67% 0.00 in WeatherDisplay:10.37 W/m2 SCT
12:00 79.1 °F 66.3 °F 30.03 in Calm   2.0 mph 65% 0.00 in WeatherDisplay:10.37 W/m2 SCT
12:10 79.4 °F 65.7 °F 30.04 in WNW 1.0 mph 2.0 mph 63% 0.00 in WeatherDisplay:10.37 W/m2 SCT
12:20 80.1 °F 68.2 °F 30.04 in Calm   1.0 mph 67% 0.00 in WeatherDisplay:10.37 W/m2 SCT
12:30 80.3 °F 67.4 °F 30.03 in Calm   2.0 mph 65% 0.00 in WeatherDisplay:10.37 W/m2 SCT
12:40 80.0 °F 66.7 °F 30.03 in NW 1.0 mph 5.0 mph 64% 0.00 in WeatherDisplay:10.37 W/m2 SCT
12:50 80.3 °F 67.9 °F 30.03 in Calm   1.0 mph 66% 0.00 in WeatherDisplay:10.37 W/m2 SCT
13:00 80.6 °F 67.3 °F 30.03 in Calm   2.0 mph 64% 0.00 in WeatherDisplay:10.37 W/m2 SCT
13:10 81.1 °F 68.2 °F 30.03 in Calm   2.0 mph 65% 0.00 in WeatherDisplay:10.37 W/m2 SCT
13:20 81.3 °F 68.0 °F 30.03 in Calm   3.0 mph 64% 0.00 in WeatherDisplay:10.37 W/m2 SCT
13:30 80.8 °F 68.0 °F 30.03 in Calm   3.0 mph 65% 0.00 in WeatherDisplay:10.37 W/m2 SCT
13:40 81.0 °F 68.5 °F 30.03 in Calm   5.0 mph 66% 0.00 in WeatherDisplay:10.37 W/m2 SCT
13:50 80.2 °F 67.4 °F 30.03 in WSW 1.0 mph 5.0 mph 65% 0.00 in WeatherDisplay:10.37 W/m2 SCT
14:00 79.0 °F 67.9 °F 30.03 in Calm   1.0 mph 69% 0.00 in WeatherDisplay:10.37 W/m2 SCT
14:10 78.4 °F 67.8 °F 30.02 in Calm   2.0 mph 70% 0.00 in WeatherDisplay:10.37 W/m2 SCT
14:20 78.1 °F 68.3 °F 30.02 in Calm   1.0 mph 72% 0.00 in WeatherDisplay:10.37 W/m2 SCT
14:30 78.2 °F 68.8 °F 30.02 in Calm   2.0 mph 73% 0.00 in WeatherDisplay:10.37 W/m2 SCT
14:40 78.9 °F 68.7 °F 30.01 in Calm   2.0 mph 71% 0.00 in WeatherDisplay:10.37 W/m2 SCT
14:50 79.1 °F 68.5 °F 30.02 in West 1.0 mph 2.0 mph 70% 0.00 in WeatherDisplay:10.37 W/m2 SCT
15:00 78.6 °F 68.4 °F 30.02 in Calm   2.0 mph 71% 0.00 in WeatherDisplay:10.37 W/m2 SCT
15:10 78.0 °F 68.6 °F 30.01 in Calm     73% 0.00 in WeatherDisplay:10.37 W/m2 SCT
15:20 77.9 °F 68.1 °F 30.01 in Calm   1.0 mph 72% 0.00 in WeatherDisplay:10.37 W/m2 SCT
15:30 78.3 °F 69.3 °F 30.01 in Calm   1.0 mph 74% 0.00 in WeatherDisplay:10.37 W/m2 SCT
15:40 78.2 °F 68.8 °F 30.01 in Calm   1.0 mph 73% 0.00 in WeatherDisplay:10.37 W/m2 SCT
15:50 77.7 °F 68.0 °F 30.01 in Calm   1.0 mph 72% 0.00 in WeatherDisplay:10.37 W/m2 SCT
16:00 77.1 °F 68.2 °F 30.01 in Calm   1.0 mph 74% 0.00 in WeatherDisplay:10.37 W/m2 SCT
16:10 76.3 °F 68.9 °F 30.02 in Calm     78% 0.00 in WeatherDisplay:10.37 W/m2 SCT
16:20 73.8 °F 68.0 °F 30.03 in Calm   2.0 mph 82% 0.13 in WeatherDisplay:10.37 W/m2 RA
16:30 71.6 °F 67.2 °F 30.05 in Calm   2.0 mph 86% 0.20 in WeatherDisplay:10.37 W/m2 RA
16:40 70.4 °F 66.6 °F 30.05 in Calm   2.0 mph 88% 0.08 in WeatherDisplay:10.37 W/m2 RA
16:50 69.8 °F 66.4 °F 30.05 in Calm   1.0 mph 89% 0.05 in WeatherDisplay:10.37 W/m2 RA
17:00 69.6 °F 66.5 °F 30.01 in Calm   1.0 mph 90% 0.04 in WeatherDisplay:10.37 W/m2 SCT
17:10 69.6 °F 66.9 °F 29.99 in Calm     91% 0.02 in WeatherDisplay:10.37 W/m2 SCT
17:20 69.6 °F 66.8 °F 29.99 in Calm   1.0 mph 91% 0.00 in WeatherDisplay:10.37 W/m2 SCT
17:30 69.8 °F 67.4 °F 29.99 in Calm   1.0 mph 92% 0.00 in WeatherDisplay:10.37 W/m2 SCT
17:40 70.0 °F 67.6 °F 29.99 in Calm   1.0 mph 92% 0.00 in WeatherDisplay:10.37 W/m2 SCT
17:50 70.0 °F 67.6 °F 30.00 in Calm   1.0 mph 92% 0.00 in WeatherDisplay:10.37 W/m2 SCT
18:00 70.3 °F 67.5 °F 30.00 in Calm   1.0 mph 91% 0.00 in WeatherDisplay:10.37 W/m2 SCT
18:10 70.5 °F 67.7 °F 30.00 in Calm     91% 0.00 in WeatherDisplay:10.37 W/m2 SCT
18:20 70.6 °F 67.8 °F 30.00 in Calm     91% 0.00 in WeatherDisplay:10.37 W/m2 SCT
18:30 70.5 °F 67.4 °F 30.00 in Calm     90% 0.00 in WeatherDisplay:10.37 W/m2 SCT
18:40 70.6 °F 67.5 °F 30.00 in Calm     90% 0.00 in WeatherDisplay:10.37 W/m2 SCT
18:50 70.6 °F 67.5 °F 30.00 in Calm     90% 0.00 in WeatherDisplay:10.37 W/m2 SCT
19:00 70.8 °F 68.0 °F 30.00 in Calm     91% 0.00 in WeatherDisplay:10.37 W/m2 SCT
19:10 70.9 °F 68.1 °F 30.00 in Calm     91% 0.00 in WeatherDisplay:10.37 W/m2 SCT
19:20 70.9 °F 68.1 °F 30.00 in Calm     91% 0.00 in WeatherDisplay:10.37 W/m2 SCT
19:30 70.9 °F 68.5 °F 30.01 in Calm     92% 0.00 in WeatherDisplay:10.37 W/m2 SCT
19:40 70.9 °F 68.5 °F 30.01 in Calm     92% 0.00 in WeatherDisplay:10.37 W/m2 SCT
19:50 70.9 °F 68.4 °F 30.01 in Calm     92% 0.00 in WeatherDisplay:10.37 W/m2 SCT
20:00 70.8 °F 68.3 °F 30.01 in Calm     92% 0.00 in WeatherDisplay:10.37 W/m2 SCT
20:10 70.7 °F 68.3 °F 30.01 in Calm     92% 0.00 in WeatherDisplay:10.37 W/m2 SCT
20:20 70.7 °F 68.3 °F 30.02 in Calm     92% 0.00 in WeatherDisplay:10.37 W/m2 SCT
20:30 70.7 °F 68.2 °F 30.01 in Calm     92% 0.00 in WeatherDisplay:10.37 W/m2 SCT
20:40 70.5 °F 68.1 °F 30.02 in Calm     92% 0.00 in WeatherDisplay:10.37 W/m2 SCT
20:50 70.4 °F 67.9 °F 30.02 in Calm     92% 0.00 in WeatherDisplay:10.37 W/m2 SCT
21:00 70.2 °F 67.8 °F 30.02 in Calm     92% 0.00 in WeatherDisplay:10.37 W/m2 SCT
21:10 70.0 °F 67.6 °F 30.02 in Calm     92% 0.00 in WeatherDisplay:10.37 W/m2 SCT
21:20 69.8 °F 67.4 °F 30.03 in Calm     92% 0.00 in WeatherDisplay:10.37 W/m2 SCT
21:30 69.6 °F 67.2 °F 30.03 in Calm     92% 0.00 in WeatherDisplay:10.37 W/m2 SCT
21:40 69.5 °F 67.1 °F 30.04 in Calm     92% 0.00 in WeatherDisplay:10.37 W/m2 SCT
21:50 69.4 °F 67.0 °F 30.04 in Calm     92% 0.00 in WeatherDisplay:10.37 W/m2 SCT
22:00 69.2 °F 66.8 °F 30.04 in Calm     92% 0.00 in WeatherDisplay:10.37 W/m2 SCT
22:10 69.0 °F 66.6 °F 30.04 in Calm     92% 0.00 in WeatherDisplay:10.37 W/m2 SCT
22:20 68.9 °F 66.5 °F 30.05 in Calm     92% 0.00 in WeatherDisplay:10.37 W/m2 SCT
22:30 68.9 °F 66.5 °F 30.06 in Calm     92% 0.00 in WeatherDisplay:10.37 W/m2 SCT
22:40 69.0 °F 66.9 °F 30.07 in Calm     93% 0.00 in WeatherDisplay:10.37 W/m2 SCT
22:50 69.1 °F 67.0 °F 30.08 in Calm     93% 0.00 in WeatherDisplay:10.37 W/m2 SCT
23:00 69.4 °F 67.3 °F 30.09 in Calm   5.0 mph 93% 0.01 in WeatherDisplay:10.37 W/m2 RA
23:10 67.9 °F 65.2 °F 30.08 in Calm   1.0 mph 91% 0.20 in WeatherDisplay:10.37 W/m2 RA
23:20 67.0 °F 64.6 °F 30.07 in Calm   1.0 mph 92% 0.05 in WeatherDisplay:10.37 W/m2 SCT
23:30 66.7 °F 64.3 °F 30.07 in Calm     92% 0.00 in WeatherDisplay:10.37 W/m2 SCT
23:40 66.5 °F 64.1 °F 30.08 in Calm     92% 0.00 in WeatherDisplay:10.37 W/m2 SCT
23:50 66.3 °F 63.9 °F 30.08 in Calm     92% 0.01 in WeatherDisplay:10.37 W/m2 RA
Piedmont Bend
Compliments of Weather Underground - 4 mb